Time;durP1;ratioP1;P1;durP2;ratioP2;P2;SDS_P1;SDS_P2;PMS_P1;PMS_P2;Temp;Humidity;BMP_temperature;BMP_pressure;BME280_temperature;BME280_humidity;BME280_pressure;Samples;Min_cycle;Max_cycle;Signal;HPM_P1;HPM_P2
2022/01/25 00:29:05;;;;;;;18.80;15.60;;;4.90;77.80;;;;;;5086364;28;20711;-46
2022/01/25 00:31:32;;;;;;;19.00;15.33;;;4.80;77.90;;;;;;5119911;28;20422;-46
2022/01/25 00:33:58;;;;;;;20.73;15.80;;;4.80;78.00;;;;;;5120593;28;20465;-46
2022/01/25 00:36:25;;;;;;;17.17;14.90;;;4.70;78.00;;;;;;5120996;28;20406;-46
2022/01/25 00:38:51;;;;;;;17.03;15.33;;;4.70;78.10;;;;;;5104468;28;20427;-46
2022/01/25 00:41:20;;;;;;;18.67;15.20;;;4.70;78.20;;;;;;5100449;28;20515;-46
2022/01/25 00:43:46;;;;;;;19.87;16.40;;;4.60;78.20;;;;;;5098786;28;20749;-47
2022/01/25 00:46:13;;;;;;;18.17;15.13;;;4.60;78.30;;;;;;5100341;28;20418;-46
2022/01/25 00:48:47;;;;;;;17.33;15.33;;;4.50;78.40;;;;;;5099910;28;20828;-46
2022/01/25 00:56:20;;;;;;;18.20;16.20;;;4.40;78.50;;;;;;5099975;28;20717;-47
2022/01/25 00:58:46;;;;;;;16.93;15.23;;;4.40;78.70;;;;;;5099753;28;20437;-46
2022/01/25 01:01:11;;;;;;;16.80;14.93;;;4.30;78.70;;;;;;5099601;28;20220;-46
2022/01/25 01:03:37;;;;;;;20.27;17.03;;;4.30;78.80;;;;;;5100042;28;20189;-47
2022/01/25 01:06:05;;;;;;;20.47;16.10;;;4.30;78.90;;;;;;5099503;28;20462;-46
2022/01/25 01:08:31;;;;;;;20.20;16.73;;;4.30;78.90;;;;;;5099545;28;20185;-46
2022/01/25 01:10:58;;;;;;;19.80;17.17;;;4.20;78.90;;;;;;5099551;28;20513;-46
2022/01/25 01:13:50;;;;;;;18.53;15.97;;;4.20;79.10;;;;;;5100051;28;20414;-46
2022/01/25 01:35:46;;;;;;;19.20;15.70;;;3.90;79.30;;;;;;5118771;28;20448;-47
2022/01/25 01:48:41;;;;;;;18.40;15.57;;;3.80;79.90;;;;;;5103822;28;20478;-46
2022/01/25 01:51:14;;;;;;;21.53;17.37;;;3.70;79.90;;;;;;5119369;28;20433;-54
2022/01/25 01:53:40;;;;;;;19.33;15.37;;;3.70;80.00;;;;;;5119205;28;20460;-47
2022/01/25 01:56:06;;;;;;;18.33;15.87;;;3.70;79.90;;;;;;5119011;28;20694;-47
2022/01/25 01:58:35;;;;;;;20.97;16.47;;;3.70;80.00;;;;;;5100868;28;20448;-47
2022/01/25 02:01:01;;;;;;;20.47;16.80;;;3.70;79.90;;;;;;5119199;28;20212;-47
2022/01/25 02:03:27;;;;;;;20.60;16.87;;;3.60;79.80;;;;;;5119320;28;20416;-47
2022/01/25 02:05:52;;;;;;;18.13;16.00;;;3.60;79.80;;;;;;5119263;28;20493;-47
2022/01/25 02:08:18;;;;;;;17.47;15.37;;;3.60;79.80;;;;;;5118789;28;20180;-47
2022/01/25 02:10:46;;;;;;;18.83;15.47;;;3.60;79.80;;;;;;5119077;28;20680;-47
2022/01/25 02:13:12;;;;;;;21.70;17.23;;;3.50;79.70;;;;;;5118942;28;20240;-45
2022/01/25 02:15:40;;;;;;;20.70;16.50;;;3.50;79.80;;;;;;5118493;28;20418;-46
2022/01/25 02:23:40;;;;;;;19.10;16.80;;;3.40;80.00;;;;;;5118576;28;20409;-46
2022/01/25 02:26:10;;;;;;;21.37;16.70;;;3.40;80.10;;;;;;5118579;28;20421;-46
2022/01/25 02:28:38;;;;;;;19.77;16.07;;;3.30;80.10;;;;;;5118609;28;20413;-46
2022/01/25 02:31:05;;;;;;;20.10;16.87;;;3.30;80.40;;;;;;5118450;28;20429;-46
2022/01/25 02:33:31;;;;;;;19.90;15.50;;;3.30;80.20;;;;;;5119033;28;20777;-46
2022/01/25 02:35:58;;;;;;;20.20;16.33;;;3.30;80.30;;;;;;5100556;28;20968;-47
2022/01/25 02:38:28;;;;;;;21.70;16.07;;;3.30;80.40;;;;;;5118607;28;20425;-46
2022/01/25 02:40:55;;;;;;;20.20;18.00;;;3.30;80.50;;;;;;5118426;28;20465;-46
2022/01/25 02:43:22;;;;;;;21.67;15.23;;;3.30;80.60;;;;;;5118656;28;20483;-46
2022/01/25 02:49:09;;;;;;;22.37;17.70;;;3.40;80.80;;;;;;5117969;28;20463;-46
2022/01/25 02:51:44;;;;;;;21.30;17.10;;;3.40;81.00;;;;;;5118143;28;20434;-46
2022/01/25 02:54:10;;;;;;;22.87;17.63;;;3.40;81.30;;;;;;5118728;28;20167;-46
2022/01/25 02:56:37;;;;;;;24.33;18.40;;;3.40;81.40;;;;;;5099958;28;20482;-46
2022/01/25 02:59:05;;;;;;;21.50;18.13;;;3.40;81.60;;;;;;5118367;28;20414;-47
2022/01/25 03:01:31;;;;;;;21.00;17.50;;;3.40;81.70;;;;;;5118129;28;20627;-46
2022/01/25 03:03:56;;;;;;;22.50;18.27;;;3.30;81.80;;;;;;5118270;28;20469;-46
2022/01/25 03:06:23;;;;;;;20.43;16.93;;;3.30;81.90;;;;;;5117500;28;20754;-46
2022/01/25 03:08:50;;;;;;;24.07;18.70;;;3.30;82.00;;;;;;5117566;28;20180;-46
2022/01/25 03:11:18;;;;;;;21.47;17.50;;;3.30;82.00;;;;;;5099671;28;20937;-47
2022/01/25 03:13:52;;;;;;;22.80;17.30;;;3.30;82.10;;;;;;5117708;28;20491;-46
2022/01/25 03:16:28;;;;;;;23.27;18.33;;;3.20;82.10;;;;;;5118064;28;20430;-46
2022/01/25 03:18:56;;;;;;;20.77;16.97;;;3.20;82.10;;;;;;5100254;28;20448;-47
2022/01/25 03:23:54;;;;;;;20.57;16.80;;;3.20;82.30;;;;;;5117984;28;20412;-45
2022/01/25 03:26:20;;;;;;;22.30;18.00;;;3.10;82.20;;;;;;5117993;28;20769;-46
2022/01/25 03:28:46;;;;;;;24.30;18.97;;;3.10;82.30;;;;;;5118110;28;20421;-46
2022/01/25 03:31:12;;;;;;;21.57;17.60;;;3.10;82.30;;;;;;5117924;28;20469;-47
2022/01/25 03:33:38;;;;;;;22.27;17.90;;;3.10;82.30;;;;;;5118286;28;20410;-46
2022/01/25 03:36:07;;;;;;;22.50;17.13;;;3.00;82.20;;;;;;5117976;28;20437;-46
2022/01/25 03:38:33;;;;;;;21.50;15.60;;;3.00;82.20;;;;;;5117923;28;20414;-46
2022/01/25 03:41:00;;;;;;;22.93;17.77;;;3.00;82.10;;;;;;5118042;28;20466;-46
2022/01/25 03:43:25;;;;;;;20.30;17.43;;;3.00;82.10;;;;;;5117815;28;20418;-46
2022/01/25 03:46:06;;;;;;;21.77;18.10;;;2.90;82.00;;;;;;5118308;28;20421;-46
2022/01/25 03:50:57;;;;;;;21.57;17.23;;;2.90;82.00;;;;;;5117723;28;20494;-46
2022/01/25 03:53:23;;;;;;;21.20;16.93;;;2.80;81.90;;;;;;5118081;28;20184;-46
2022/01/25 03:55:48;;;;;;;21.20;16.40;;;2.80;81.90;;;;;;5117764;28;20565;-46
2022/01/25 03:58:14;;;;;;;19.90;17.60;;;2.80;81.90;;;;;;5117548;28;20646;-46
2022/01/25 04:00:43;;;;;;;22.00;18.03;;;2.70;81.70;;;;;;5117520;28;20397;-47
2022/01/25 04:06:11;;;;;;;23.17;18.17;;;2.70;81.70;;;;;;5054201;28;20409;-46
2022/01/25 04:08:37;;;;;;;23.23;18.87;;;2.70;81.50;;;;;;5104080;28;20725;-46
2022/01/25 04:11:03;;;;;;;21.30;16.80;;;2.70;81.40;;;;;;5116431;28;20470;-47
2022/01/25 04:13:28;;;;;;;22.67;17.70;;;2.60;81.30;;;;;;5117622;28;20853;-46
2022/01/25 04:15:57;;;;;;;20.53;16.80;;;2.60;81.40;;;;;;5115738;28;20271;-46
2022/01/25 04:26:17;;;;;;;21.13;16.93;;;2.50;81.20;;;;;;5120602;28;20501;-47
2022/01/25 04:28:43;;;;;;;21.23;17.13;;;2.50;81.20;;;;;;5120870;28;20453;-45
2022/01/25 04:31:09;;;;;;;25.43;18.90;;;2.50;81.30;;;;;;5120772;28;20179;-46
2022/01/25 04:33:44;;;;;;;23.43;17.67;;;2.50;81.30;;;;;;5120634;28;20177;-46
2022/01/25 04:49:40;;;;;;;27.47;20.27;;;2.30;81.10;;;;;;5120012;28;20448;-46
2022/01/25 04:52:10;;;;;;;31.73;21.50;;;2.30;81.10;;;;;;5120241;28;20431;-46
2022/01/25 05:05:10;;;;;;;29.63;21.70;;;2.20;81.40;;;;;;5111433;28;20548;-43
2022/01/25 05:07:56;;;;;;;27.57;20.23;;;2.20;81.70;;;;;;5119015;28;20434;-41
2022/01/25 05:10:22;;;;;;;24.27;18.90;;;2.30;81.90;;;;;;5099614;28;20485;-42
2022/01/25 05:13:11;;;;;;;26.23;20.30;;;2.30;81.90;;;;;;5111304;28;20767;-43
2022/01/25 05:18:20;;;;;;;25.40;18.53;;;2.40;81.80;;;;;;5119589;28;20461;-43
2022/01/25 05:23:30;;;;;;;26.57;18.80;;;2.40;81.50;;;;;;5098079;28;20472;-43
2022/01/25 05:25:58;;;;;;;23.53;18.63;;;2.50;81.50;;;;;;5097584;28;20430;-42
2022/01/25 05:28:24;;;;;;;24.97;20.43;;;2.50;81.40;;;;;;5096672;28;20475;-44
2022/01/25 05:30:50;;;;;;;22.47;19.00;;;2.50;81.40;;;;;;5095868;28;20430;-43
2022/01/25 05:33:16;;;;;;;23.17;18.70;;;2.40;81.30;;;;;;5099229;28;20275;-43
2022/01/25 05:35:44;;;;;;;23.67;19.20;;;2.40;81.30;;;;;;5117607;28;20516;-42
2022/01/25 05:38:10;;;;;;;25.60;19.70;;;2.40;81.30;;;;;;5116801;28;20172;-43
2022/01/25 05:40:57;;;;;;;25.73;19.50;;;2.40;81.40;;;;;;5116960;28;20477;-43
2022/01/25 05:48:27;;;;;;;22.80;18.97;;;2.30;81.30;;;;;;5117427;28;20463;-45
2022/01/25 05:50:54;;;;;;;23.30;18.90;;;2.30;81.30;;;;;;5117429;28;20484;-43
2022/01/25 05:53:19;;;;;;;24.60;18.27;;;2.30;81.30;;;;;;5099825;28;20461;-43
2022/01/25 05:55:45;;;;;;;25.60;19.00;;;2.30;81.20;;;;;;5118796;28;20464;-42
2022/01/25 05:58:11;;;;;;;23.60;17.20;;;2.30;81.20;;;;;;5118032;28;20237;-42
2022/01/25 06:00:37;;;;;;;24.43;18.80;;;2.30;81.20;;;;;;5116731;28;20306;-41
2022/01/25 06:03:05;;;;;;;22.80;17.97;;;2.20;81.10;;;;;;5099601;28;20402;-42
2022/01/25 06:05:32;;;;;;;25.60;18.77;;;2.20;81.00;;;;;;5118451;28;20673;-42
2022/01/25 06:07:57;;;;;;;24.13;18.00;;;2.20;81.00;;;;;;5117483;28;20436;-43
2022/01/25 06:10:23;;;;;;;23.73;18.40;;;2.20;81.00;;;;;;5102954;28;20478;-42
2022/01/25 06:12:51;;;;;;;23.80;18.00;;;2.10;80.80;;;;;;5076404;28;20249;-43
2022/01/25 06:15:17;;;;;;;24.10;17.30;;;2.10;80.80;;;;;;5095351;28;20185;-43
2022/01/25 06:17:43;;;;;;;24.20;19.10;;;2.10;80.80;;;;;;5093470;28;20415;-45
2022/01/25 06:20:10;;;;;;;21.30;16.70;;;2.10;80.90;;;;;;5094536;28;20481;-43
2022/01/25 06:22:36;;;;;;;22.00;17.40;;;2.00;80.90;;;;;;5095636;28;20423;-43
2022/01/25 06:25:02;;;;;;;23.30;18.07;;;2.00;80.90;;;;;;5095386;28;20881;-42
2022/01/25 06:27:28;;;;;;;21.97;17.60;;;2.00;80.90;;;;;;5095059;28;20920;-44
2022/01/25 06:29:53;;;;;;;25.10;19.53;;;2.00;80.90;;;;;;5094156;28;20434;-46
2022/01/25 06:32:20;;;;;;;27.33;19.10;;;2.00;80.90;;;;;;5075864;28;20177;-43
2022/01/25 06:34:46;;;;;;;22.73;17.93;;;1.90;80.80;;;;;;5085112;28;20605;-42
2022/01/25 06:37:13;;;;;;;19.50;16.10;;;1.90;80.80;;;;;;5113704;28;20432;-42
2022/01/25 06:39:42;;;;;;;23.73;18.97;;;1.90;80.80;;;;;;5096949;28;20761;-43
2022/01/25 06:42:09;;;;;;;22.20;18.20;;;1.90;80.80;;;;;;5113432;28;20476;-42
2022/01/25 06:44:36;;;;;;;24.67;18.43;;;1.80;80.70;;;;;;5113517;28;20414;-45
2022/01/25 06:47:03;;;;;;;26.77;17.90;;;1.80;80.70;;;;;;5093819;28;20498;-42
2022/01/25 06:49:29;;;;;;;24.40;18.77;;;1.80;80.70;;;;;;5112968;28;20417;-43
2022/01/25 06:51:55;;;;;;;24.67;18.50;;;1.80;80.80;;;;;;5113839;28;20429;-44
2022/01/25 06:54:20;;;;;;;24.23;18.90;;;1.80;80.70;;;;;;5113577;28;20579;-41
2022/01/25 06:56:46;;;;;;;22.83;17.53;;;1.80;80.70;;;;;;5100635;28;20260;-40
2022/01/25 06:59:11;;;;;;;18.97;16.27;;;1.80;80.80;;;;;;5094396;28;20550;-42
2022/01/25 07:01:37;;;;;;;22.43;17.23;;;1.80;80.80;;;;;;5099814;28;20235;-41
2022/01/25 07:04:05;;;;;;;21.63;17.10;;;1.80;80.80;;;;;;5095492;28;20173;-42
2022/01/25 07:06:31;;;;;;;21.97;17.47;;;1.80;80.90;;;;;;5095924;28;20184;-43
2022/01/25 07:08:57;;;;;;;23.83;17.13;;;1.80;80.80;;;;;;5094193;28;20494;-44
2022/01/25 07:11:23;;;;;;;23.17;17.47;;;1.80;80.80;;;;;;5095161;28;20700;-43
2022/01/25 07:13:49;;;;;;;21.60;18.70;;;1.80;80.80;;;;;;5096152;28;20736;-42
2022/01/25 07:16:17;;;;;;;22.57;17.77;;;1.80;80.80;;;;;;5096055;28;20493;-42
2022/01/25 07:18:43;;;;;;;24.40;17.07;;;1.80;80.70;;;;;;5094080;28;20708;-42
2022/01/25 07:21:08;;;;;;;24.97;17.30;;;1.80;80.70;;;;;;5095411;28;20500;-44
2022/01/25 07:23:34;;;;;;;21.10;17.43;;;1.80;80.70;;;;;;5078422;28;20195;-43
2022/01/25 07:26:00;;;;;;;19.07;16.40;;;1.80;80.70;;;;;;5091590;28;20192;-43
2022/01/25 07:28:26;;;;;;;20.23;16.77;;;1.80;80.80;;;;;;5115878;28;21028;-44
2022/01/25 07:30:51;;;;;;;24.60;18.97;;;1.90;80.90;;;;;;5114671;28;20562;-42
2022/01/25 07:33:17;;;;;;;23.60;18.27;;;1.90;80.80;;;;;;5115539;28;20296;-42
2022/01/25 07:35:45;;;;;;;23.20;17.53;;;2.00;80.90;;;;;;5096610;28;20191;-43
2022/01/25 07:38:11;;;;;;;24.50;17.93;;;2.00;81.00;;;;;;5114970;28;20185;-43
2022/01/25 07:40:37;;;;;;;21.13;17.97;;;2.20;81.20;;;;;;5115119;28;20465;-43
2022/01/25 07:43:07;;;;;;;11.00;3.70;;;2.30;81.10;;;;;;5115275;28;20423;-46
2022/01/25 07:45:35;;;;;;;11.37;8.70;;;5.60;99.90;;;;;;5114477;28;20657;-46
2022/01/25 07:48:06;;;;;;;13.27;5.97;;;8.30;99.90;;;;;;5114967;28;20428;-47
2022/01/25 07:50:32;;;;;;;8.17;6.33;;;10.30;99.90;;;;;;5115683;28;20414;-48
2022/01/25 07:52:57;;;;;;;13.43;8.27;;;11.70;97.30;;;;;;5116544;28;20443;-41
2022/01/25 07:55:23;;;;;;;10.03;9.03;;;12.50;92.20;;;;;;5120572;28;20414;-41
2022/01/25 07:57:49;;;;;;;13.30;11.93;;;12.50;90.10;;;;;;5118143;28;20179;-41
2022/01/25 08:00:15;;;;;;;16.67;14.97;;;12.10;84.90;;;;;;5117128;28;20203;-44
2022/01/25 08:02:41;;;;;;;16.53;14.83;;;11.50;80.10;;;;;;5099802;28;20225;-41
2022/01/25 08:05:07;;;;;;;17.80;16.00;;;10.90;77.20;;;;;;5080361;28;20453;-41
2022/01/25 08:07:33;;;;;;;18.87;16.87;;;10.40;76.30;;;;;;5100284;28;20422;-41
2022/01/25 08:09:59;;;;;;;21.33;18.27;;;10.10;75.80;;;;;;5082257;28;20557;-42
2022/01/25 08:12:25;;;;;;;20.63;18.53;;;9.90;76.70;;;;;;5097559;28;20579;-40
2022/01/25 08:14:51;;;;;;;19.50;17.40;;;9.70;76.10;;;;;;5097351;28;20175;-40
2022/01/25 08:17:17;;;;;;;20.30;18.20;;;9.70;75.80;;;;;;5096232;28;20433;-40
2022/01/25 08:19:44;;;;;;;20.37;18.10;;;9.70;75.30;;;;;;5097333;28;20188;-40
2022/01/25 08:22:13;;;;;;;19.83;17.73;;;9.80;74.90;;;;;;5097323;28;20426;-40
2022/01/25 08:24:39;;;;;;;20.17;18.07;;;9.90;74.30;;;;;;5098255;28;20964;-40
2022/01/25 08:27:04;;;;;;;19.87;17.33;;;10.20;72.40;;;;;;5098398;28;20743;-41
2022/01/25 08:29:35;;;;;;;21.00;16.93;;;10.40;71.40;;;;;;5098245;28;20198;-41
2022/01/25 08:32:01;;;;;;;19.60;16.17;;;10.70;70.30;;;;;;5096222;28;20185;-40
2022/01/25 08:34:26;;;;;;;19.20;15.57;;;11.00;69.40;;;;;;5097422;28;20835;-40
2022/01/25 08:36:55;;;;;;;16.50;14.80;;;11.40;67.60;;;;;;5097567;28;20184;-40
2022/01/25 08:39:22;;;;;;;16.40;14.43;;;11.70;65.50;;;;;;5094523;28;20574;-40
2022/01/25 08:41:47;;;;;;;15.57;13.80;;;12.00;63.90;;;;;;5094555;28;20908;-40
2022/01/25 08:44:13;;;;;;;17.53;15.73;;;12.30;61.40;;;;;;5109941;28;20746;-41
2022/01/25 08:46:39;;;;;;;17.73;15.87;;;12.60;59.40;;;;;;5118321;28;20447;-41
2022/01/25 08:49:05;;;;;;;17.10;15.40;;;12.80;58.60;;;;;;5119136;28;20199;-40
2022/01/25 08:51:30;;;;;;;18.63;16.50;;;13.10;57.50;;;;;;5098520;28;20859;-40
2022/01/25 08:53:56;;;;;;;16.77;14.87;;;13.30;56.20;;;;;;5118727;28;20369;-40
2022/01/25 08:56:22;;;;;;;18.13;16.23;;;13.50;55.90;;;;;;5118885;28;20280;-41
2022/01/25 08:58:48;;;;;;;16.17;14.57;;;13.90;54.90;;;;;;5101947;28;20173;-41
2022/01/25 09:01:14;;;;;;;16.17;14.53;;;14.30;54.50;;;;;;5119059;28;20611;-40
2022/01/25 09:03:39;;;;;;;16.80;15.20;;;14.70;52.90;;;;;;5117266;28;20826;-40
2022/01/25 09:06:05;;;;;;;17.07;15.40;;;15.00;51.70;;;;;;5115854;28;20184;-40
2022/01/25 09:08:31;;;;;;;16.30;14.60;;;15.40;50.60;;;;;;5118858;28;20195;-40
2022/01/25 09:10:59;;;;;;;15.73;14.27;;;15.70;49.40;;;;;;5100377;28;20475;-41
2022/01/25 09:13:25;;;;;;;16.23;14.47;;;16.00;48.80;;;;;;5117443;28;20432;-43
2022/01/25 09:15:52;;;;;;;16.33;14.73;;;16.40;47.70;;;;;;5104631;28;20541;-42
2022/01/25 09:18:19;;;;;;;15.93;14.33;;;16.80;47.00;;;;;;5117593;28;20433;-42
2022/01/25 09:20:46;;;;;;;15.93;14.33;;;17.00;45.60;;;;;;5116733;28;20518;-41
2022/01/25 09:23:16;;;;;;;13.30;12.10;;;17.30;45.00;;;;;;5117567;28;20430;-42
2022/01/25 09:25:42;;;;;;;15.57;14.07;;;17.60;44.10;;;;;;5114752;28;20406;-39
2022/01/25 09:28:08;;;;;;;14.17;12.80;;;18.10;43.50;;;;;;5114172;28;20498;-39
2022/01/25 09:30:33;;;;;;;14.73;13.23;;;18.40;42.80;;;;;;5116249;28;20683;-39
2022/01/25 09:32:59;;;;;;;16.50;15.00;;;18.90;42.10;;;;;;5116673;28;20350;-41
2022/01/25 09:35:28;;;;;;;17.40;15.70;;;19.20;41.20;;;;;;5098883;28;20671;-40
2022/01/25 09:37:53;;;;;;;17.97;16.07;;;19.60;40.30;;;;;;5097823;28;20440;-40
2022/01/25 09:40:20;;;;;;;16.80;15.20;;;20.00;39.70;;;;;;5117790;28;20460;-41
2022/01/25 09:42:50;;;;;;;21.37;19.23;;;20.40;39.10;;;;;;5100948;28;20568;-40
2022/01/25 09:45:17;;;;;;;28.83;24.17;;;20.80;38.50;;;;;;5100873;28;20428;-41
2022/01/25 09:47:42;;;;;;;23.10;20.73;;;21.20;37.60;;;;;;5116474;28;20408;-41
2022/01/25 09:50:08;;;;;;;23.77;21.37;;;21.50;36.80;;;;;;5099960;28;20426;-40
2022/01/25 09:52:35;;;;;;;21.60;19.50;;;21.90;35.90;;;;;;5117690;28;20201;-40
2022/01/25 09:55:01;;;;;;;21.03;17.10;;;22.30;35.30;;;;;;5117125;28;20430;-41
2022/01/25 09:57:33;;;;;;;16.70;15.10;;;22.50;35.00;;;;;;5104594;28;20492;-40
2022/01/25 09:59:58;;;;;;;16.37;14.87;;;22.90;34.60;;;;;;5098770;28;20486;-41
2022/01/25 10:02:35;;;;;;;16.23;14.63;;;23.20;33.90;;;;;;5098343;28;20517;-43
2022/01/25 10:05:23;;;;;;;14.80;13.40;;;23.70;33.30;;;;;;5097715;28;20590;-41
2022/01/25 10:08:02;;;;;;;14.90;13.50;;;24.00;32.90;;;;;;5098728;28;20742;-40
2022/01/25 10:10:32;;;;;;;14.83;13.27;;;24.40;32.40;;;;;;5098328;28;20469;-39
2022/01/25 10:13:16;;;;;;;14.20;12.90;;;24.80;32.00;;;;;;5097340;28;20416;-39
2022/01/25 10:15:42;;;;;;;13.73;12.53;;;24.70;30.90;;;;;;5096564;28;20435;-41
2022/01/25 10:18:08;;;;;;;12.90;11.80;;;24.70;30.60;;;;;;5096662;28;20497;-40
2022/01/25 10:20:40;;;;;;;13.47;12.37;;;25.00;30.60;;;;;;5095731;28;20479;-41
2022/01/25 10:23:14;;;;;;;11.87;10.77;;;25.10;30.00;;;;;;5077466;28;20165;-42
2022/01/25 10:25:45;;;;;;;11.83;10.73;;;25.40;30.00;;;;;;5094275;28;20534;-41
2022/01/25 10:28:13;;;;;;;11.27;10.37;;;25.90;29.70;;;;;;5076152;28;20623;-40
2022/01/25 10:30:54;;;;;;;10.53;9.53;;;26.30;29.40;;;;;;5076190;28;20961;-41
2022/01/25 10:33:25;;;;;;;10.90;10.00;;;26.70;29.10;;;;;;5075980;28;20416;-41
2022/01/25 10:35:51;;;;;;;10.50;9.60;;;27.10;29.00;;;;;;5095279;28;20977;-42
2022/01/25 10:38:19;;;;;;;11.60;10.60;;;27.50;28.50;;;;;;5095907;28;20851;-41
2022/01/25 10:40:56;;;;;;;10.63;9.70;;;27.70;28.10;;;;;;5098052;28;20530;-41
2022/01/25 10:43:23;;;;;;;10.60;9.70;;;28.20;28.10;;;;;;5096351;28;20508;-42
2022/01/25 10:46:07;;;;;;;8.67;7.87;;;28.50;27.40;;;;;;5078422;28;20842;-40
2022/01/25 10:48:33;;;;;;;9.33;8.53;;;28.70;27.30;;;;;;5096662;28;20422;-43
2022/01/25 10:51:38;;;;;;;10.43;9.53;;;29.00;27.10;;;;;;5096948;28;20476;-41
2022/01/25 10:54:11;;;;;;;8.87;8.17;;;29.10;26.70;;;;;;5095788;28;20412;-42
2022/01/25 10:56:49;;;;;;;9.20;8.50;;;29.50;26.80;;;;;;5078867;28;20438;-41
2022/01/25 10:59:28;;;;;;;9.93;9.03;;;30.00;26.50;;;;;;5096160;28;20409;-42
2022/01/25 11:02:02;;;;;;;10.97;10.07;;;30.30;26.20;;;;;;5096188;28;20486;-41
2022/01/25 11:04:33;;;;;;;9.90;9.20;;;30.70;26.00;;;;;;5096093;28;20489;-41
2022/01/25 11:07:03;;;;;;;9.83;9.07;;;31.00;25.80;;;;;;5095564;28;20404;-42
2022/01/25 11:09:36;;;;;;;10.00;9.20;;;31.00;25.50;;;;;;5078267;28;20764;-42
2022/01/25 11:12:04;;;;;;;8.73;8.03;;;30.90;25.50;;;;;;5078269;28;20417;-43
2022/01/25 11:14:53;;;;;;;8.70;8.00;;;31.40;25.40;;;;;;5096506;28;20408;-42
2022/01/25 11:17:24;;;;;;;9.23;8.53;;;31.70;25.20;;;;;;5095180;28;20503;-42
2022/01/25 11:19:50;;;;;;;10.33;9.43;;;32.20;24.90;;;;;;5094356;28;20420;-41
2022/01/25 11:22:19;;;;;;;9.37;8.60;;;32.40;24.70;;;;;;5095260;28;20489;-41
2022/01/25 11:24:49;;;;;;;8.50;7.80;;;32.40;24.50;;;;;;5095666;28;20408;-41
2022/01/25 11:27:16;;;;;;;8.67;7.97;;;32.60;24.70;;;;;;5094797;28;20747;-43
2022/01/25 11:29:42;;;;;;;8.73;8.07;;;33.00;24.60;;;;;;5097502;28;20421;-40
2022/01/25 11:32:14;;;;;;;8.57;7.87;;;33.30;24.20;;;;;;5080143;28;20474;-42
2022/01/25 11:34:40;;;;;;;7.47;6.87;;;33.50;24.00;;;;;;5097172;28;20393;-43
2022/01/25 11:37:07;;;;;;;7.93;7.33;;;33.80;23.90;;;;;;5098458;28;20402;-41
2022/01/25 11:39:35;;;;;;;8.30;7.60;;;34.00;23.80;;;;;;5098673;28;20419;-42
2022/01/25 11:42:13;;;;;;;9.40;8.40;;;34.20;23.70;;;;;;5099537;28;20502;-44
2022/01/25 11:44:51;;;;;;;8.27;7.67;;;34.10;23.40;;;;;;5099643;28;20451;-42
2022/01/25 11:47:21;;;;;;;9.10;8.30;;;34.40;23.60;;;;;;5098681;28;20526;-42
2022/01/25 11:50:01;;;;;;;6.60;6.00;;;34.10;24.40;;;;;;5098310;28;20439;-46
2022/01/25 11:52:30;;;;;;;7.10;6.50;;;33.60;26.50;;;;;;5082088;28;20522;-47
2022/01/25 11:55:22;;;;;;;7.70;6.30;;;33.10;27.30;;;;;;5065150;28;20793;-47
2022/01/25 11:57:53;;;;;;;6.27;5.43;;;33.10;27.30;;;;;;5096509;28;20526;-46
2022/01/25 12:00:22;;;;;;;6.70;6.10;;;33.00;27.40;;;;;;5097214;28;20385;-45
2022/01/25 12:02:50;;;;;;;7.83;6.70;;;32.60;27.30;;;;;;5099334;28;20479;-47
2022/01/25 12:05:24;;;;;;;8.73;8.03;;;32.70;27.30;;;;;;5098363;28;20480;-46
2022/01/25 12:08:09;;;;;;;10.73;7.70;;;32.40;27.10;;;;;;5080771;28;20427;-46
2022/01/25 12:10:41;;;;;;;9.03;8.33;;;32.70;27.60;;;;;;5080905;28;20484;-46
2022/01/25 12:13:11;;;;;;;9.07;8.23;;;32.90;27.00;;;;;;5098434;28;20409;-46
2022/01/25 12:15:38;;;;;;;7.87;7.17;;;32.90;27.10;;;;;;5096366;28;20396;-45
2022/01/25 12:18:08;;;;;;;9.47;8.73;;;33.00;27.30;;;;;;5062561;28;20435;-46
2022/01/25 12:20:46;;;;;;;8.53;7.73;;;33.00;27.00;;;;;;5097064;28;20521;-46
2022/01/25 12:23:18;;;;;;;8.97;8.10;;;33.00;27.20;;;;;;5096559;28;20406;-48
2022/01/25 12:25:57;;;;;;;8.23;7.53;;;32.90;27.20;;;;;;5079917;28;20424;-45
2022/01/25 12:28:29;;;;;;;8.97;8.20;;;33.00;27.50;;;;;;5096492;28;20404;-46
2022/01/25 12:30:59;;;;;;;7.90;7.23;;;33.40;26.70;;;;;;5095748;28;20462;-47
2022/01/25 12:33:29;;;;;;;10.20;9.30;;;33.50;26.70;;;;;;5094429;28;20425;-47
2022/01/25 12:36:00;;;;;;;7.90;7.20;;;33.30;26.90;;;;;;5093362;28;20434;-46
2022/01/25 12:38:43;;;;;;;7.50;7.00;;;33.40;27.10;;;;;;5095523;28;20435;-46
2022/01/25 12:41:20;;;;;;;8.20;7.50;;;33.90;26.60;;;;;;5095324;28;20405;-46
2022/01/25 12:43:54;;;;;;;8.20;7.50;;;33.80;26.40;;;;;;5096507;28;20889;-46
2022/01/25 12:46:25;;;;;;;7.27;6.73;;;34.10;26.50;;;;;;5107721;28;20399;-46
2022/01/25 12:49:00;;;;;;;6.30;5.80;;;34.10;26.20;;;;;;5117999;28;20429;-46
2022/01/25 12:51:28;;;;;;;6.43;5.93;;;34.00;26.80;;;;;;5117535;28;20471;-47
2022/01/25 12:53:55;;;;;;;5.53;5.03;;;34.00;26.60;;;;;;5115254;28;20419;-45
2022/01/25 12:56:26;;;;;;;7.00;6.40;;;33.90;26.90;;;;;;5115466;28;20534;-47
2022/01/25 12:58:57;;;;;;;8.60;7.90;;;34.40;26.40;;;;;;5116253;28;20414;-47
2022/01/25 13:01:24;;;;;;;8.60;8.00;;;34.60;26.10;;;;;;5114780;28;20485;-47
2022/01/25 13:04:01;;;;;;;10.80;9.73;;;34.70;26.40;;;;;;5116266;28;20708;-50
2022/01/25 13:06:31;;;;;;;11.10;10.30;;;34.30;26.70;;;;;;5098731;28;20429;-45
2022/01/25 13:16:57;;;;;;;12.83;11.77;;;34.10;26.60;;;;;;5117749;28;20388;-46
2022/01/25 13:19:26;;;;;;;12.57;11.57;;;34.00;26.70;;;;;;5097975;28;21092;-48
2022/01/25 13:22:03;;;;;;;11.73;10.73;;;34.00;26.50;;;;;;5116192;28;20470;-45
2022/01/25 13:24:33;;;;;;;12.70;11.70;;;34.40;26.30;;;;;;5114211;28;20417;-44
2022/01/25 13:27:05;;;;;;;13.73;12.53;;;34.30;26.60;;;;;;5113564;28;20393;-44
2022/01/25 13:32:30;;;;;;;15.30;14.00;;;33.90;26.80;;;;;;5114971;28;20514;-45
2022/01/25 13:35:20;;;;;;;16.00;14.50;;;34.20;26.50;;;;;;5117237;28;20416;-45
2022/01/25 13:38:26;;;;;;;14.57;13.47;;;34.00;26.40;;;;;;5116077;28;20378;-45
2022/01/25 13:41:05;;;;;;;12.97;11.87;;;33.80;26.90;;;;;;5110832;28;20794;-47
2022/01/25 13:46:04;;;;;;;15.23;14.03;;;34.40;26.40;;;;;;5115054;28;20466;-44
2022/01/25 13:48:31;;;;;;;14.60;13.40;;;34.40;26.40;;;;;;5112467;28;20707;-49
2022/01/25 13:51:02;;;;;;;14.13;12.93;;;34.30;26.50;;;;;;5113278;28;20441;-46
2022/01/25 13:53:32;;;;;;;13.63;12.53;;;34.20;26.20;;;;;;5115210;28;20810;-46
2022/01/25 13:56:00;;;;;;;11.37;10.47;;;34.10;26.30;;;;;;5115943;28;20392;-46
2022/01/25 13:58:30;;;;;;;13.63;12.53;;;34.20;26.20;;;;;;5116467;28;20553;-44
2022/01/25 14:00:59;;;;;;;13.80;11.83;;;34.70;26.00;;;;;;5116236;28;20438;-45
2022/01/25 14:03:32;;;;;;;10.43;9.60;;;34.40;26.10;;;;;;5115868;28;20519;-44
2022/01/25 14:05:58;;;;;;;12.60;11.60;;;34.40;26.30;;;;;;5116860;28;20430;-43
2022/01/25 14:08:43;;;;;;;12.77;11.67;;;34.70;25.70;;;;;;5116649;28;20900;-42
2022/01/25 14:21:39;;;;;;;11.63;10.67;;;35.00;25.40;;;;;;5095141;28;20527;-44
2022/01/25 14:25:13;;;;;;;10.23;9.40;;;34.60;25.60;;;;;;5098477;28;20396;-43
2022/01/25 14:27:50;;;;;;;9.60;8.80;;;34.40;25.80;;;;;;5117637;28;20442;-45
2022/01/25 14:30:19;;;;;;;8.90;8.27;;;34.20;25.70;;;;;;5117137;28;20467;-46
2022/01/25 14:33:10;;;;;;;10.20;9.40;;;34.30;25.70;;;;;;5116682;28;20811;-45
2022/01/25 14:35:55;;;;;;;8.70;8.00;;;34.10;25.70;;;;;;5116705;28;20402;-48
2022/01/25 14:38:22;;;;;;;9.80;8.90;;;34.00;25.80;;;;;;5116128;28;20492;-45
2022/01/25 14:41:05;;;;;;;10.03;9.33;;;33.90;25.80;;;;;;5115776;28;20416;-44
2022/01/25 14:43:36;;;;;;;9.27;8.57;;;33.60;25.70;;;;;;5116140;28;20411;-45
2022/01/25 14:46:13;;;;;;;10.03;9.20;;;33.40;26.00;;;;;;5115748;28;20391;-47
2022/01/25 14:48:43;;;;;;;9.30;8.40;;;33.10;25.90;;;;;;5115636;28;20399;-45
2022/01/25 14:51:11;;;;;;;10.47;9.67;;;32.90;26.10;;;;;;5115766;28;20501;-45
2022/01/25 14:53:37;;;;;;;8.90;8.20;;;32.70;26.10;;;;;;5114634;28;20661;-47
2022/01/25 14:56:05;;;;;;;9.40;8.50;;;32.40;26.30;;;;;;5114745;28;20416;-46
2022/01/25 15:01:16;;;;;;;9.53;8.60;;;31.80;26.70;;;;;;5113333;28;20411;-45
2022/01/25 15:03:44;;;;;;;8.23;7.53;;;31.20;26.70;;;;;;5111852;28;20440;-46
2022/01/25 15:06:14;;;;;;;9.20;8.50;;;30.70;27.00;;;;;;5113141;28;20880;-46
2022/01/25 15:08:48;;;;;;;8.97;8.27;;;30.40;27.10;;;;;;5113307;28;20419;-45
2022/01/25 15:11:14;;;;;;;8.63;8.03;;;30.00;27.30;;;;;;5112379;28;20489;-45
2022/01/25 15:13:40;;;;;;;8.97;8.07;;;29.70;27.50;;;;;;5114516;28;20426;-46
2022/01/25 15:16:06;;;;;;;9.17;8.37;;;29.40;27.70;;;;;;5094881;28;20791;-45